Time;durP1;ratioP1;P1;durP2;ratioP2;P2;SDS_P1;SDS_P2;PMS_P1;PMS_P2;Temp;Humidity;BMP_temperature;BMP_pressure;BME280_temperature;BME280_humidity;BME280_pressure;Samples;Min_cycle;Max_cycle;Signal;HPM_P1;HPM_P2
2022/03/24 00:00:31;;;;;;;;;;;;;;;15.68;36.07;101939.47;4938962;28;112154;-72
2022/03/24 00:02:57;;;;;;;;;;;;;;;15.64;36.13;101941.88;4940735;28;97849;-64
2022/03/24 00:05:23;;;;;;;;;;;;;;;15.63;36.12;101942.94;4939394;28;118019;-64
2022/03/24 00:07:48;;;;;;;;;;;;;;;15.59;36.37;101950.00;4938577;28;121247;-72
2022/03/24 00:10:14;;;;;;;;;;;;;;;15.58;36.17;101942.94;4939278;28;125438;-73
2022/03/24 00:12:40;;;;;;;;;;;;;;;15.58;36.13;101942.13;4939465;28;125861;-64
2022/03/24 00:15:07;;;;;;;;;;;;;;;15.55;36.31;101945.34;4941064;28;97935;-72
2022/03/24 00:17:33;;;;;;;;;;;;;;;15.53;36.22;101939.38;4902182;28;98315;-64
2022/03/24 00:19:59;;;;;;;;;;;;;;;15.51;36.23;101938.81;4901976;28;127216;-72
2022/03/24 00:22:26;;;;;;;;;;;;;;;15.49;36.46;101941.00;4928294;28;98176;-71
2022/03/24 00:24:52;;;;;;;;;;;;;;;15.47;36.13;101938.53;4940008;28;97671;-72
2022/03/24 00:27:18;;;;;;;;;;;;;;;15.44;36.28;101941.75;4938407;28;128090;-63
2022/03/24 00:29:45;;;;;;;;;;;;;;;15.41;36.41;101948.56;4937986;28;126000;-63
2022/03/24 00:32:11;;;;;;;;;;;;;;;15.38;36.36;101932.78;4938952;28;98706;-71
2022/03/24 00:34:37;;;;;;;;;;;;;;;15.36;36.73;101942.28;4939904;28;111020;-63
2022/03/24 00:37:04;;;;;;;;;;;;;;;15.34;36.60;101942.53;4921623;28;99069;-63
2022/03/24 00:39:33;;;;;;;;;;;;;;;15.32;36.72;101938.44;4940537;28;98846;-72
2022/03/24 00:42:03;;;;;;;;;;;;;;;15.31;36.74;101942.25;4940103;28;99258;-71
2022/03/24 00:44:29;;;;;;;;;;;;;;;15.29;36.77;101936.25;4938894;28;121444;-63
2022/03/24 00:46:55;;;;;;;;;;;;;;;15.26;36.66;101932.19;4938801;28;125962;-63
2022/03/24 00:49:21;;;;;;;;;;;;;;;15.23;36.82;101936.22;4919730;28;125465;-72
2022/03/24 00:51:48;;;;;;;;;;;;;;;15.21;36.66;101932.97;4903514;28;126675;-71
2022/03/24 00:54:18;;;;;;;;;;;;;;;15.19;36.40;101931.59;4922094;28;97932;-72
2022/03/24 00:56:45;;;;;;;;;;;;;;;15.16;36.52;101932.94;4922132;28;99082;-63
2022/03/24 00:59:11;;;;;;;;;;;;;;;15.14;36.75;101926.13;4939412;28;99015;-63
2022/03/24 01:01:39;;;;;;;;;;;;;;;15.12;36.89;101928.28;4938059;28;127237;-65
2022/03/24 01:04:06;;;;;;;;;;;;;;;15.08;36.63;101930.69;4939965;28;97834;-72
2022/03/24 01:06:33;;;;;;;;;;;;;;;15.06;37.04;101929.34;4938966;28;98651;-63
2022/03/24 01:09:00;;;;;;;;;;;;;;;15.03;37.06;101927.16;4939377;28;98956;-70
2022/03/24 01:11:26;;;;;;;;;;;;;;;15.00;36.95;101925.78;4938564;28;98537;-71
2022/03/24 01:13:52;;;;;;;;;;;;;;;14.98;36.81;101922.50;4938732;28;122416;-71
2022/03/24 01:16:18;;;;;;;;;;;;;;;14.94;36.95;101922.22;4938187;28;125778;-73
2022/03/24 01:18:45;;;;;;;;;;;;;;;14.91;37.11;101922.72;4938448;28;128028;-71
2022/03/24 01:21:11;;;;;;;;;;;;;;;14.88;36.93;101923.25;4923271;28;98931;-63
2022/03/24 01:23:37;;;;;;;;;;;;;;;14.86;37.09;101921.88;4942932;28;97850;-72
2022/03/24 01:26:05;;;;;;;;;;;;;;;14.83;36.90;101917.78;4942208;28;98309;-71
2022/03/24 01:28:32;;;;;;;;;;;;;;;14.80;37.19;101915.59;4942577;28;99274;-63
2022/03/24 01:30:58;;;;;;;;;;;;;;;14.78;37.11;101914.22;4942615;28;98663;-63
2022/03/24 01:33:24;;;;;;;;;;;;;;;14.75;37.42;101910.13;4941004;28;120331;-63
2022/03/24 01:35:50;;;;;;;;;;;;;;;14.72;37.14;101908.75;4941758;28;97967;-63
2022/03/24 01:38:17;;;;;;;;;;;;;;;14.69;37.06;101908.44;4942716;28;98309;-72
2022/03/24 01:40:46;;;;;;;;;;;;;;;14.67;37.32;101914.16;4923301;28;98595;-72
2022/03/24 01:43:11;;;;;;;;;;;;;;;14.65;37.20;101912.75;4942945;28;119238;-71
2022/03/24 01:45:38;;;;;;;;;;;;;;;14.63;37.28;101912.22;4961256;28;128265;-63
2022/03/24 01:48:06;;;;;;;;;;;;;;;14.59;37.48;101909.19;4944003;28;98612;-72
2022/03/24 01:50:33;;;;;;;;;;;;;;;14.58;37.18;101909.44;4923240;28;98018;-73
2022/03/24 01:52:59;;;;;;;;;;;;;;;14.56;37.55;101912.44;4942055;28;97814;-63
2022/03/24 01:55:24;;;;;;;;;;;;;;;14.54;37.42;101914.59;4942096;28;97968;-64
2022/03/24 01:57:51;;;;;;;;;;;;;;;14.52;37.18;101905.06;4906369;28;127634;-64
2022/03/24 02:00:17;;;;;;;;;;;;;;;14.51;37.37;101909.69;4941766;28;98313;-63
2022/03/24 02:02:43;;;;;;;;;;;;;;;14.48;37.25;101910.97;4906705;28;124126;-71
2022/03/24 02:05:10;;;;;;;;;;;;;;;14.48;37.44;101915.59;4923428;28;98579;-64
2022/03/24 02:07:36;;;;;;;;;;;;;;;14.44;37.37;101912.56;4942205;28;98521;-72
2022/03/24 02:10:04;;;;;;;;;;;;;;;14.43;37.60;101910.13;4941979;28;98173;-72
2022/03/24 02:12:30;;;;;;;;;;;;;;;14.42;37.49;101911.19;4941638;28;98045;-73
2022/03/24 02:14:59;;;;;;;;;;;;;;;14.41;37.35;101909.56;4940068;28;128007;-63
2022/03/24 02:17:29;;;;;;;;;;;;;;;14.38;37.36;101919.03;4941824;28;98310;-63
2022/03/24 02:19:57;;;;;;;;;;;;;;;14.36;37.80;101915.75;4941881;28;97943;-64
2022/03/24 02:22:24;;;;;;;;;;;;;;;14.34;37.72;101915.19;4942272;28;98305;-63
2022/03/24 02:24:50;;;;;;;;;;;;;;;14.33;37.48;101915.44;4940470;28;127629;-71
2022/03/24 02:27:16;;;;;;;;;;;;;;;14.30;37.66;101922.19;4920124;28;98591;-71
2022/03/24 02:29:42;;;;;;;;;;;;;;;14.28;37.51;101913.50;4918516;28;126180;-71
2022/03/24 02:32:11;;;;;;;;;;;;;;;14.27;37.47;101913.78;4927401;28;123197;-71
2022/03/24 02:34:37;;;;;;;;;;;;;;;14.24;37.79;101912.38;4907860;28;99014;-72
2022/03/24 02:37:06;;;;;;;;;;;;;;;14.22;37.78;101918.03;4941495;28;98514;-64
2022/03/24 02:39:32;;;;;;;;;;;;;;;14.20;37.52;101922.94;4942513;28;98009;-65
2022/03/24 02:41:59;;;;;;;;;;;;;;;14.19;37.72;101925.91;4941776;28;97740;-71
2022/03/24 02:44:27;;;;;;;;;;;;;;;14.16;37.69;101921.81;4952200;28;124134;-63
2022/03/24 02:46:54;;;;;;;;;;;;;;;14.14;37.73;101923.94;4954407;28;122506;-64
2022/03/24 02:49:22;;;;;;;;;;;;;;;14.13;37.78;101919.59;4939872;28;98261;-63
2022/03/24 02:51:50;;;;;;;;;;;;;;;14.11;38.00;101912.78;4939858;28;97853;-64
2022/03/24 02:54:16;;;;;;;;;;;;;;;14.09;37.49;101915.75;4923380;28;98570;-72
2022/03/24 02:56:42;;;;;;;;;;;;;;;14.07;37.77;101912.50;4939687;28;124305;-63
2022/03/24 02:59:08;;;;;;;;;;;;;;;14.06;37.80;101918.16;4942136;28;98138;-63
2022/03/24 03:01:35;;;;;;;;;;;;;;;14.03;37.83;101916.81;4939934;28;122270;-63
2022/03/24 03:04:01;;;;;;;;;;;;;;;14.02;37.63;101919.75;4940880;28;99378;-72
2022/03/24 03:06:27;;;;;;;;;;;;;;;13.98;37.87;101914.00;4941462;28;98191;-72
2022/03/24 03:08:53;;;;;;;;;;;;;;;13.96;37.60;101913.47;4905741;28;127969;-63
2022/03/24 03:11:23;;;;;;;;;;;;;;;13.95;37.67;101917.22;4921396;28;123233;-70
2022/03/24 03:13:49;;;;;;;;;;;;;;;13.93;37.92;101922.09;4923005;28;98323;-64
2022/03/24 03:16:15;;;;;;;;;;;;;;;13.90;37.79;101926.13;4940464;28;98312;-72
2022/03/24 03:18:44;;;;;;;;;;;;;;;13.90;37.75;101919.91;4939726;28;114148;-64
2022/03/24 03:21:11;;;;;;;;;;;;;;;13.86;37.71;101924.19;4940658;28;98072;-64
2022/03/24 03:23:38;;;;;;;;;;;;;;;13.85;37.70;101928.78;4921371;28;127095;-63
2022/03/24 03:26:05;;;;;;;;;;;;;;;13.81;38.08;101932.28;4940461;28;98731;-71
2022/03/24 03:28:31;;;;;;;;;;;;;;;13.79;37.95;101932.50;4921974;28;127330;-72
2022/03/24 03:30:57;;;;;;;;;;;;;;;13.78;37.79;101930.06;4921722;28;113304;-63
2022/03/24 03:33:23;;;;;;;;;;;;;;;13.74;37.90;101927.84;4922198;28;98895;-73
2022/03/24 03:35:49;;;;;;;;;;;;;;;13.72;37.88;101935.44;4947320;28;111045;-64
2022/03/24 03:38:15;;;;;;;;;;;;;;;13.71;37.96;101938.38;4940184;28;125454;-63
2022/03/24 03:40:41;;;;;;;;;;;;;;;13.70;37.96;101936.75;4939491;28;123412;-63
2022/03/24 03:43:09;;;;;;;;;;;;;;;13.67;38.06;101932.63;4940028;28;128326;-71
2022/03/24 03:45:35;;;;;;;;;;;;;;;13.65;37.99;101931.28;4941976;28;98604;-63
2022/03/24 03:48:01;;;;;;;;;;;;;;;13.62;37.58;101931.78;4927051;28;98002;-64
2022/03/24 03:50:27;;;;;;;;;;;;;;;13.60;37.87;101921.19;4940983;28;98627;-71
2022/03/24 03:52:53;;;;;;;;;;;;;;;13.58;37.88;101930.63;4939609;28;128139;-63
2022/03/24 03:55:19;;;;;;;;;;;;;;;13.56;37.88;101935.47;4905254;28;101205;-72
2022/03/24 03:57:45;;;;;;;;;;;;;;;13.54;38.20;101932.22;4939359;28;103157;-71
2022/03/24 04:02:57;;;;;;;;;;;;;;;13.51;37.93;101936.22;4937203;28;98089;-72
2022/03/24 04:05:25;;;;;;;;;;;;;;;13.49;37.99;101935.69;4939921;28;98476;-63
2022/03/24 04:07:51;;;;;;;;;;;;;;;13.47;37.98;101932.38;4939493;28;98305;-73
2022/03/24 04:10:17;;;;;;;;;;;;;;;13.46;38.21;101939.69;4940206;28;98130;-68
2022/03/24 04:12:43;;;;;;;;;;;;;;;13.44;38.14;101930.16;4938248;28;127495;-64
2022/03/24 04:15:10;;;;;;;;;;;;;;;13.42;38.17;101935.03;4938787;28;98314;-71
2022/03/24 04:17:36;;;;;;;;;;;;;;;13.41;38.13;101936.13;4921770;28;100372;-63
2022/03/24 04:20:02;;;;;;;;;;;;;;;13.38;38.05;101926.59;4921424;28;98237;-73
2022/03/24 04:22:28;;;;;;;;;;;;;;;13.36;38.19;101926.03;4921811;28;99411;-64
2022/03/24 04:24:54;;;;;;;;;;;;;;;13.36;38.20;101928.75;4937419;28;129919;-73
2022/03/24 04:27:20;;;;;;;;;;;;;;;13.34;38.09;101925.44;4937940;28;128619;-72
2022/03/24 04:29:46;;;;;;;;;;;;;;;13.32;38.22;101927.56;4920695;28;122237;-72
2022/03/24 04:32:12;;;;;;;;;;;;;;;13.30;38.24;101924.31;4904451;28;128925;-63
2022/03/24 04:34:38;;;;;;;;;;;;;;;13.28;38.47;101923.72;4905394;28;109096;-73
2022/03/24 04:37:04;;;;;;;;;;;;;;;13.26;38.26;101917.75;4918406;28;97917;-72
2022/03/24 04:39:30;;;;;;;;;;;;;;;13.25;38.33;101924.25;4920598;28;97756;-63
2022/03/24 04:41:56;;;;;;;;;;;;;;;13.24;38.25;101931.56;4925208;28;128084;-71
2022/03/24 04:44:24;;;;;;;;;;;;;;;13.24;38.30;101928.00;4951255;28;128129;-63
2022/03/24 04:46:50;;;;;;;;;;;;;;;13.22;38.43;101933.66;4947719;28;98761;-63
2022/03/24 04:49:16;;;;;;;;;;;;;;;13.20;38.22;101930.41;4939965;28;97790;-72
2022/03/24 04:51:42;;;;;;;;;;;;;;;13.19;38.41;101934.16;4920175;28;128710;-62
2022/03/24 04:54:08;;;;;;;;;;;;;;;13.17;38.29;101935.50;4919697;28;127950;-72
2022/03/24 04:56:34;;;;;;;;;;;;;;;13.17;38.34;101935.50;4939066;28;98225;-64
2022/03/24 04:59:00;;;;;;;;;;;;;;;13.16;38.40;101939.25;4938592;28;101820;-64
2022/03/24 05:01:26;;;;;;;;;;;;;;;13.15;38.47;101932.19;4920579;28;98884;-64
2022/03/24 05:03:52;;;;;;;;;;;;;;;13.14;38.38;101941.38;4939385;28;128864;-64
2022/03/24 05:06:18;;;;;;;;;;;;;;;13.13;38.25;101937.88;4938460;28;126779;-64
2022/03/24 05:08:44;;;;;;;;;;;;;;;13.13;38.37;101945.19;4935967;28;122959;-74
2022/03/24 05:11:10;;;;;;;;;;;;;;;13.12;38.40;101947.03;4920069;28;127984;-64
2022/03/24 05:13:36;;;;;;;;;;;;;;;13.12;38.44;101943.50;4939028;28;127418;-63
2022/03/24 05:16:02;;;;;;;;;;;;;;;13.12;38.56;101944.31;4919010;28;127028;-71
2022/03/24 05:18:28;;;;;;;;;;;;;;;13.12;38.36;101943.50;4921143;28;117473;-73
2022/03/24 05:20:54;;;;;;;;;;;;;;;13.14;38.44;101944.09;4938824;28;98357;-73
2022/03/24 05:23:20;;;;;;;;;;;;;;;13.14;38.32;101947.63;4918686;28;98638;-73
2022/03/24 05:25:49;;;;;;;;;;;;;;;13.14;38.41;101958.44;4927334;28;121015;-73
2022/03/24 05:28:16;;;;;;;;;;;;;;;13.16;38.35;101947.38;4935908;28;98068;-72
2022/03/24 05:30:42;;;;;;;;;;;;;;;13.16;38.51;101952.78;4935257;28;99496;-73
2022/03/24 05:33:08;;;;;;;;;;;;;;;13.18;38.49;101950.66;4912352;28;98364;-73
2022/03/24 05:35:35;;;;;;;;;;;;;;;13.19;38.52;101950.41;4932721;28;115177;-63
2022/03/24 05:38:04;;;;;;;;;;;;;;;13.22;38.38;101946.38;4928049;28;98081;-63
2022/03/24 05:40:31;;;;;;;;;;;;;;;13.25;38.54;101954.03;4934650;28;99115;-74
2022/03/24 05:42:57;;;;;;;;;;;;;;;13.27;38.62;101946.47;4934726;28;99111;-73
2022/03/24 05:45:23;;;;;;;;;;;;;;;13.30;38.45;101951.41;4941017;28;127482;-73
2022/03/24 05:47:49;;;;;;;;;;;;;;;13.35;38.43;101951.47;4934271;28;120889;-73
2022/03/24 05:50:15;;;;;;;;;;;;;;;13.38;38.54;101948.25;4933389;28;127518;-73
2022/03/24 05:52:41;;;;;;;;;;;;;;;13.44;38.44;101954.56;4934650;28;99003;-73
2022/03/24 05:55:08;;;;;;;;;;;;;;;13.49;38.66;101949.22;4934139;28;127168;-64
2022/03/24 05:57:34;;;;;;;;;;;;;;;13.54;38.46;101951.16;4928465;28;97922;-63
2022/03/24 06:00:01;;;;;;;;;;;;;;;13.59;38.44;101952.03;4935004;28;98492;-63
2022/03/24 06:02:27;;;;;;;;;;;;;;;13.66;38.54;101952.69;4934289;28;98981;-73
2022/03/24 06:04:53;;;;;;;;;;;;;;;13.72;38.71;101956.28;4933763;28;128433;-72
2022/03/24 06:07:19;;;;;;;;;;;;;;;13.80;38.58;101958.56;4936435;28;124097;-72
2022/03/24 06:09:45;;;;;;;;;;;;;;;13.85;38.61;101955.91;4940698;28;127506;-64
2022/03/24 06:12:12;;;;;;;;;;;;;;;13.92;38.55;101956.53;4941669;28;99017;-72
2022/03/24 06:14:40;;;;;;;;;;;;;;;13.98;38.37;101958.19;4923100;28;98049;-64
2022/03/24 06:17:06;;;;;;;;;;;;;;;14.05;38.66;101954.50;4923797;28;98169;-73
2022/03/24 06:19:34;;;;;;;;;;;;;;;14.11;38.78;101961.59;4942061;28;116234;-64
2022/03/24 06:22:01;;;;;;;;;;;;;;;14.17;38.75;101964.09;4941481;28;99179;-64
2022/03/24 06:24:29;;;;;;;;;;;;;;;14.24;38.54;101955.78;4941809;28;97905;-64
2022/03/24 06:26:55;;;;;;;;;;;;;;;14.33;38.26;101967.78;4941645;28;97789;-72
2022/03/24 06:29:21;;;;;;;;;;;;;;;14.41;38.45;101964.63;4939838;28;128326;-72
2022/03/24 06:31:47;;;;;;;;;;;;;;;14.53;38.31;101960.97;4941673;28;98509;-73
2022/03/24 06:34:13;;;;;;;;;;;;;;;14.62;38.33;101962.13;4940755;28;126215;-73
2022/03/24 06:36:39;;;;;;;;;;;;;;;14.76;38.02;101955.19;4923481;28;97989;-73
2022/03/24 06:39:05;;;;;;;;;;;;;;;14.88;38.23;101958.53;4906479;28;100542;-72
2022/03/24 06:41:31;;;;;;;;;;;;;;;15.09;38.31;101959.53;4941297;28;98647;-64
2022/03/24 06:43:59;;;;;;;;;;;;;;;15.16;38.30;101960.09;4948274;28;126840;-64
2022/03/24 06:46:25;;;;;;;;;;;;;;;15.25;38.03;101957.72;4958594;28;98215;-64
2022/03/24 06:48:51;;;;;;;;;;;;;;;15.39;37.88;101964.28;4942160;28;100092;-73
2022/03/24 06:51:18;;;;;;;;;;;;;;;15.49;38.13;101968.16;4940554;28;126502;-64
2022/03/24 06:53:44;;;;;;;;;;;;;;;15.58;37.82;101964.66;4941548;28;97846;-63
2022/03/24 06:56:10;;;;;;;;;;;;;;;15.67;38.21;101973.16;4941221;28;97862;-63
2022/03/24 06:58:36;;;;;;;;;;;;;;;15.79;37.91;101967.50;4906809;28;100083;-71
2022/03/24 07:01:03;;;;;;;;;;;;;;;15.84;38.16;101973.78;4906492;28;98874;-71
2022/03/24 07:03:29;;;;;;;;;;;;;;;15.94;37.89;101975.72;4922752;28;98100;-73
2022/03/24 07:05:55;;;;;;;;;;;;;;;15.99;38.03;101977.63;4941067;28;97756;-63
2022/03/24 07:08:22;;;;;;;;;;;;;;;16.05;37.98;101979.28;4941309;28;106394;-63
2022/03/24 07:10:49;;;;;;;;;;;;;;;16.10;38.16;101982.84;4940377;28;98646;-71
2022/03/24 07:13:16;;;;;;;;;;;;;;;16.20;38.33;101982.06;4940835;28;98570;-71
2022/03/24 07:15:42;;;;;;;;;;;;;;;16.30;38.02;101986.69;4940734;28;99720;-63
2022/03/24 07:18:08;;;;;;;;;;;;;;;16.39;37.96;101985.09;4940076;28;108229;-63
2022/03/24 07:20:35;;;;;;;;;;;;;;;16.51;38.30;101991.09;4922640;28;99546;-64
2022/03/24 07:23:03;;;;;;;;;;;;;;;16.60;38.05;101991.38;4941639;28;98121;-72
2022/03/24 07:25:30;;;;;;;;;;;;;;;16.68;38.12;101988.09;4940486;28;98083;-64
2022/03/24 07:27:56;;;;;;;;;;;;;;;16.78;38.10;101990.88;4940237;28;99049;-73
2022/03/24 07:30:22;;;;;;;;;;;;;;;16.89;38.09;101997.94;4940572;28;110501;-73
2022/03/24 07:32:48;;;;;;;;;;;;;;;17.03;38.23;101995.47;4940857;28;98197;-72
2022/03/24 07:35:14;;;;;;;;;;;;;;;17.19;38.25;101993.56;4940479;28;97861;-73
2022/03/24 07:37:42;;;;;;;;;;;;;;;17.36;38.12;101991.34;4940799;28;98493;-63
2022/03/24 07:40:09;;;;;;;;;;;;;;;17.56;38.03;101986.91;4940297;28;98218;-64
2022/03/24 07:42:36;;;;;;;;;;;;;;;17.78;37.94;101992.88;4921997;28;98191;-64
2022/03/24 07:45:04;;;;;;;;;;;;;;;18.00;37.68;101988.94;4922150;28;97959;-71
2022/03/24 07:47:30;;;;;;;;;;;;;;;18.25;37.69;101996.19;4940649;28;98874;-64
2022/03/24 07:49:56;;;;;;;;;;;;;;;18.51;37.37;101994.94;4940039;28;98570;-64
2022/03/24 07:52:26;;;;;;;;;;;;;;;18.81;37.20;101987.63;4937615;28;127746;-73
2022/03/24 07:54:58;;;;;;;;;;;;;;;19.19;36.93;101990.56;4918708;28;98110;-63
2022/03/24 07:57:25;;;;;;;;;;;;;;;19.62;36.74;101983.28;4920867;28;99152;-71
2022/03/24 07:59:51;;;;;;;;;;;;;;;20.08;36.44;101993.63;4940787;28;98363;-64
2022/03/24 08:02:17;;;;;;;;;;;;;;;20.58;36.12;101991.28;4904848;28;125277;-64
2022/03/24 08:04:44;;;;;;;;;;;;;;;21.08;35.80;101997.03;4921679;28;98169;-64
2022/03/24 08:07:09;;;;;;;;;;;;;;;21.60;35.52;101986.72;4938763;28;123236;-72
2022/03/24 08:09:35;;;;;;;;;;;;;;;22.18;35.11;101990.75;4939907;28;127178;-64
2022/03/24 08:12:01;;;;;;;;;;;;;;;22.86;34.79;101986.91;4939623;28;98057;-64
2022/03/24 08:14:27;;;;;;;;;;;;;;;23.60;34.32;101991.00;4939501;28;98123;-64
2022/03/24 08:16:53;;;;;;;;;;;;;;;24.34;33.52;101992.94;4939379;28;126924;-64
2022/03/24 08:19:19;;;;;;;;;;;;;;;25.05;33.29;101993.31;4901742;28;101321;-73
2022/03/24 08:21:45;;;;;;;;;;;;;;;25.70;32.94;101999.56;4921998;28;128376;-74
2022/03/24 08:24:12;;;;;;;;;;;;;;;26.31;32.89;101997.22;4939073;28;122956;-74
2022/03/24 08:26:38;;;;;;;;;;;;;;;26.92;32.47;101991.97;4940432;28;97759;-63
2022/03/24 08:29:04;;;;;;;;;;;;;;;27.45;32.27;101994.94;4939435;28;98394;-73
2022/03/24 08:31:30;;;;;;;;;;;;;;;27.92;31.85;102000.00;4937746;28;118136;-64
2022/03/24 08:33:57;;;;;;;;;;;;;;;28.37;31.88;102001.75;4940076;28;97684;-72
2022/03/24 08:36:23;;;;;;;;;;;;;;;28.73;31.83;101998.03;4939253;28;98162;-64
2022/03/24 08:38:49;;;;;;;;;;;;;;;29.04;31.53;102005.63;4939275;28;113380;-61
2022/03/24 08:41:15;;;;;;;;;;;;;;;29.32;31.33;101997.19;4920004;28;127582;-72
2022/03/24 08:43:41;;;;;;;;;;;;;;;29.58;31.80;102001.41;4940335;28;98087;-64
2022/03/24 08:46:09;;;;;;;;;;;;;;;29.77;31.84;102011.75;4939984;28;99521;-64
2022/03/24 08:48:35;;;;;;;;;;;;;;;29.96;31.51;102000.69;4938794;28;97778;-64
2022/03/24 08:51:02;;;;;;;;;;;;;;;30.18;31.73;102003.94;4939694;28;98014;-73
2022/03/24 08:53:28;;;;;;;;;;;;;;;30.43;31.34;102001.69;4939690;28;97674;-72
2022/03/24 08:55:55;;;;;;;;;;;;;;;30.71;31.53;102001.44;4937907;28;127274;-72
2022/03/24 08:58:21;;;;;;;;;;;;;;;31.01;31.49;102001.63;4938810;28;98537;-64
2022/03/24 09:00:47;;;;;;;;;;;;;;;31.32;31.16;101999.78;4920201;28;127471;-72
2022/03/24 09:03:13;;;;;;;;;;;;;;;31.64;31.12;102003.88;4939208;28;121742;-62
2022/03/24 09:05:40;;;;;;;;;;;;;;;31.98;30.98;101998.41;4938289;28;104657;-72
2022/03/24 09:08:06;;;;;;;;;;;;;;;32.34;30.86;102004.44;4939578;28;98736;-63
2022/03/24 09:10:32;;;;;;;;;;;;;;;32.70;30.51;102000.09;4939026;28;99179;-73
2022/03/24 09:12:59;;;;;;;;;;;;;;;33.03;30.38;101995.66;4939284;28;97955;-66
2022/03/24 09:15:24;;;;;;;;;;;;;;;33.35;30.19;101991.13;4937732;28;102806;-64
2022/03/24 09:17:50;;;;;;;;;;;;;;;33.67;30.10;101988.56;4939439;28;128128;-72
2022/03/24 09:20:18;;;;;;;;;;;;;;;34.00;29.67;101995.19;4937714;28;126409;-64
2022/03/24 09:22:45;;;;;;;;;;;;;;;34.31;29.47;101998.47;4938977;28;97775;-65
2022/03/24 09:25:12;;;;;;;;;;;;;;;34.63;29.18;102001.41;4937528;28;98322;-72
2022/03/24 09:27:38;;;;;;;;;;;;;;;34.93;29.41;101996.25;4938795;28;99446;-64
2022/03/24 09:30:05;;;;;;;;;;;;;;;35.23;29.00;101995.09;4921459;28;98247;-64
2022/03/24 09:32:31;;;;;;;;;;;;;;;35.52;28.77;101987.47;4919905;28;101683;-64
2022/03/24 09:34:58;;;;;;;;;;;;;;;35.84;28.27;101993.00;4920373;28;98139;-64
2022/03/24 09:37:23;;;;;;;;;;;;;;;36.17;28.11;101988.09;4939456;28;98268;-62
2022/03/24 09:39:50;;;;;;;;;;;;;;;36.51;28.15;101977.13;4905272;28;98039;-64
2022/03/24 09:42:17;;;;;;;;;;;;;;;36.91;27.69;101985.25;4923592;28;97884;-71
2022/03/24 09:44:44;;;;;;;;;;;;;;;37.30;27.26;101982.13;4937732;28;97820;-71
2022/03/24 09:47:12;;;;;;;;;;;;;;;37.71;27.27;101978.50;4918529;28;98172;-71
2022/03/24 09:49:39;;;;;;;;;;;;;;;38.12;26.90;101972.00;4934479;28;97990;-73
2022/03/24 09:52:05;;;;;;;;;;;;;;;38.55;26.78;101978.66;4930166;28;98326;-65
2022/03/24 09:54:31;;;;;;;;;;;;;;;38.96;26.23;101980.44;4922190;28;128319;-64
2022/03/24 09:57:02;;;;;;;;;;;;;;;39.37;26.19;101975.72;4940640;28;127453;-73
2022/03/24 09:59:28;;;;;;;;;;;;;;;39.78;25.51;101974.56;4941040;28;119189;-65
2022/03/24 10:01:55;;;;;;;;;;;;;;;40.20;25.40;101984.16;4923074;28;120261;-64
2022/03/24 10:04:21;;;;;;;;;;;;;;;40.60;25.08;101978.41;4907067;28;101041;-64
2022/03/24 10:07:03;;;;;;;;;;;;;;;40.88;24.17;101974.91;4941547;28;98189;-71
2022/03/24 10:09:40;;;;;;;;;;;;;;;40.82;22.87;101973.84;4941747;28;98454;-71
2022/03/24 10:12:07;;;;;;;;;;;;;;;40.58;22.53;101973.22;4923138;28;97921;-71
2022/03/24 10:14:33;;;;;;;;;;;;;;;40.40;21.99;101964.34;4941917;28;98666;-67
2022/03/24 10:17:08;;;;;;;;;;;;;;;40.27;21.77;101963.44;4941981;28;98370;-71
2022/03/24 10:19:35;;;;;;;;;;;;;;;40.23;21.62;101966.34;4907871;28;98554;-72
2022/03/24 10:22:07;;;;;;;;;;;;;;;40.25;21.07;101955.41;4942099;28;97822;-71
2022/03/24 10:24:41;;;;;;;;;;;;;;;40.24;21.00;101956.63;4923175;28;98553;-65
2022/03/24 10:27:07;;;;;;;;;;;;;;;40.11;20.94;101948.06;4920430;28;98392;-71
2022/03/24 10:29:34;;;;;;;;;;;;;;;40.01;21.10;101949.06;4941325;28;98001;-65
2022/03/24 10:32:04;;;;;;;;;;;;;;;40.03;20.68;101949.41;4941657;28;97925;-65
2022/03/24 10:34:35;;;;;;;;;;;;;;;40.12;20.39;101935.53;4941192;28;98367;-72
2022/03/24 10:37:06;;;;;;;;;;;;;;;40.27;20.05;101938.03;4940666;28;106063;-71
2022/03/24 10:39:32;;;;;;;;;;;;;;;40.59;19.61;101937.28;4940169;28;97924;-63
2022/03/24 10:42:14;;;;;;;;;;;;;;;40.97;19.24;101935.53;4940300;28;107398;-63
2022/03/24 10:45:18;;;;;;;;;;;;;;;41.49;18.69;101935.78;4955083;28;98304;-64
2022/03/24 10:48:00;;;;;;;;;;;;;;;41.55;18.47;101936.81;4948107;28;98219;-64
2022/03/24 10:50:39;;;;;;;;;;;;;;;41.57;18.36;101929.44;4940677;28;98072;-70
2022/03/24 10:53:09;;;;;;;;;;;;;;;41.35;18.33;101922.81;4941614;28;98377;-70
2022/03/24 10:55:44;;;;;;;;;;;;;;;41.07;18.52;101919.53;4940604;28;97904;-64
2022/03/24 10:58:19;;;;;;;;;;;;;;;40.80;18.18;101914.16;4941249;28;98078;-64
2022/03/24 11:00:46;;;;;;;;;;;;;;;40.46;18.43;101915.38;4939456;28;124132;-69
2022/03/24 11:03:12;;;;;;;;;;;;;;;40.26;18.47;101913.88;4941457;28;107095;-70
2022/03/24 11:05:38;;;;;;;;;;;;;;;40.15;18.61;101914.91;4940836;28;98928;-64
2022/03/24 11:08:06;;;;;;;;;;;;;;;40.18;18.41;101914.03;4903071;28;98323;-70
2022/03/24 11:10:34;;;;;;;;;;;;;;;40.39;18.30;101907.06;4932592;28;98012;-69
2022/03/24 11:13:00;;;;;;;;;;;;;;;40.75;17.98;101899.75;4923001;28;97737;-70
2022/03/24 11:15:26;;;;;;;;;;;;;;;40.95;17.61;101900.44;4940876;28;98074;-71
2022/03/24 11:17:52;;;;;;;;;;;;;;;40.96;17.56;101900.00;4923318;28;98586;-64
2022/03/24 11:20:21;;;;;;;;;;;;;;;40.84;17.39;101895.09;4939227;28;127784;-70
2022/03/24 11:23:00;;;;;;;;;;;;;;;40.67;17.39;101891.47;4940270;28;97806;-69
2022/03/24 11:25:27;;;;;;;;;;;;;;;40.26;17.77;101885.63;4930312;28;98474;-64
2022/03/24 11:27:54;;;;;;;;;;;;;;;39.90;17.93;101889.25;4940550;28;98431;-64
2022/03/24 11:30:20;;;;;;;;;;;;;;;39.66;17.71;101885.72;4940296;28;97998;-64
2022/03/24 11:32:46;;;;;;;;;;;;;;;39.45;17.98;101881.31;4940090;28;97872;-70
2022/03/24 11:35:13;;;;;;;;;;;;;;;39.23;18.15;101880.97;4940174;28;98384;-69
2022/03/24 11:37:39;;;;;;;;;;;;;;;38.98;18.05;101881.38;4940087;28;98139;-64
2022/03/24 11:40:07;;;;;;;;;;;;;;;38.77;17.81;101876.91;4922957;28;98010;-70
2022/03/24 11:42:36;;;;;;;;;;;;;;;38.62;18.02;101875.56;4918923;28;114891;-71
2022/03/24 11:45:07;;;;;;;;;;;;;;;38.53;18.09;101879.72;4935171;28;115351;-71
2022/03/24 11:47:46;;;;;;;;;;;;;;;38.38;17.71;101869.94;4928871;28;122774;-72
2022/03/24 11:50:14;;;;;;;;;;;;;;;38.24;17.74;101873.75;4921791;28;98657;-67
2022/03/24 11:52:40;;;;;;;;;;;;;;;38.08;18.02;101867.94;4940187;28;98172;-70
2022/03/24 11:55:13;;;;;;;;;;;;;;;37.93;18.05;101856.13;4920330;28;119415;-61
2022/03/24 11:57:39;;;;;;;;;;;;;;;37.78;18.38;101852.66;4939323;28;98215;-66
2022/03/24 12:00:14;;;;;;;;;;;;;;;37.61;18.54;101859.31;4940005;28;98209;-67
2022/03/24 12:02:41;;;;;;;;;;;;;;;37.40;18.94;101851.13;4941003;28;97799;-61
2022/03/24 12:05:07;;;;;;;;;;;;;;;37.17;19.18;101840.56;4921014;28;114461;-67
2022/03/24 12:07:33;;;;;;;;;;;;;;;36.94;19.34;101842.00;4939749;28;98701;-67
2022/03/24 12:10:01;;;;;;;;;;;;;;;36.70;19.54;101841.00;4938726;28;127187;-61
2022/03/24 12:12:28;;;;;;;;;;;;;;;36.45;19.65;101840.41;4940214;28;97682;-65
2022/03/24 12:14:54;;;;;;;;;;;;;;;36.24;19.84;101842.16;4938903;28;102844;-61
2022/03/24 12:17:22;;;;;;;;;;;;;;;36.01;20.01;101841.91;4938969;28;97915;-61
2022/03/24 12:19:55;;;;;;;;;;;;;;;35.76;19.90;101828.78;4940006;28;98448;-61
2022/03/24 12:22:30;;;;;;;;;;;;;;;35.52;19.81;101838.91;4939984;28;97713;-66
2022/03/24 12:30:17;;;;;;;;;;;;;;;34.78;20.37;101829.47;5709295;22;98691;-65
2022/03/24 12:32:46;;;;;;;;;;;;;;;34.59;20.68;101824.28;4920790;28;98161;-65
2022/03/24 12:35:42;;;;;;;;;;;;;;;34.40;20.67;101820.66;4904546;28;110391;-61
2022/03/24 12:38:34;;;;;;;;;;;;;;;34.18;20.77;101821.81;4923974;28;127896;-65
2022/03/24 12:41:06;;;;;;;;;;;;;;;33.93;20.15;101814.16;4919861;28;98438;-61